Time,TemperatureF,DewpointF,PressureIn,WindDirection,WindDirectionDegrees,WindSpeedMPH,WindSpeedGustMPH,Humidity,HourlyPrecipIn,Conditions,Clouds,dailyrainin,SoftwareType,DateUTC
2013-02-15 00:00:00,35.7,32.8,30.06,WSW,248,0.0,0.0,89,0.00,,---,0.00,VWS V14.01,2013-02-15 06:00:00,
2013-02-15 00:05:00,35.5,32.6,30.06,WSW,248,0.0,0.0,89,0.00,,---,0.00,VWS V14.01,2013-02-15 06:05:00,
2013-02-15 00:10:00,35.5,32.6,30.06,WSW,248,0.0,0.0,89,0.00,,---,0.00,VWS V14.01,2013-02-15 06:10:00,
2013-02-15 00:15:00,35.3,32.4,30.03,WSW,248,0.0,0.0,89,0.00,,---,0.00,VWS V14.01,2013-02-15 06:15:00,
2013-02-15 00:20:00,35.3,32.4,30.03,WSW,248,0.0,0.0,89,0.00,,---,0.00,VWS V14.01,2013-02-15 06:20:00,
2013-02-15 00:25:00,35.3,32.7,30.03,WSW,248,0.0,0.0,90,0.00,,---,0.00,VWS V14.01,2013-02-15 06:25:00,
2013-02-15 00:30:00,35.2,32.5,30.06,WSW,248,0.0,0.0,90,0.00,,---,0.00,VWS V14.01,2013-02-15 06:30:00,
2013-02-15 00:35:00,35.0,32.1,30.06,WSW,248,0.0,0.0,89,0.00,,---,0.00,VWS V14.01,2013-02-15 06:35:00,
2013-02-15 00:40:00,35.0,32.1,30.06,WSW,248,0.0,0.0,89,0.00,,---,0.00,VWS V14.01,2013-02-15 06:40:00,
2013-02-15 00:45:00,34.8,31.9,30.06,WSW,248,0.0,0.0,89,0.00,,---,0.00,VWS V14.01,2013-02-15 06:45:00,
2013-02-15 00:50:00,34.8,31.9,30.06,WSW,248,0.0,0.0,89,0.00,,---,0.00,VWS V14.01,2013-02-15 06:50:00,
2013-02-15 00:55:00,34.8,32.2,30.06,WSW,248,0.0,0.0,90,0.00,,---,0.00,VWS V14.01,2013-02-15 06:55:00,
2013-02-15 01:00:00,34.6,32.0,30.06,WSW,248,0.0,0.0,90,0.00,,---,0.00,VWS V14.01,2013-02-15 07:00:00,
2013-02-15 01:05:00,34.6,32.3,30.06,WSW,248,0.0,0.0,91,0.00,,---,0.00,VWS V14.01,2013-02-15 07:05:00,
2013-02-15 01:10:00,34.6,32.0,30.06,WSW,248,0.0,0.0,90,0.00,,---,0.00,VWS V14.01,2013-02-15 07:10:00,
2013-02-15 01:15:00,34.4,31.8,30.06,WSW,248,0.0,0.0,90,0.00,,---,0.00,VWS V14.01,2013-02-15 07:15:00,
2013-02-15 01:20:00,34.4,32.1,30.06,WSW,248,0.0,0.0,91,0.00,,---,0.00,VWS V14.01,2013-02-15 07:20:00,
2013-02-15 01:25:00,34.4,32.1,30.06,WSW,248,0.0,0.0,91,0.00,,---,0.00,VWS V14.01,2013-02-15 07:25:00,
2013-02-15 01:30:00,34.3,31.9,30.06,WSW,248,0.0,0.0,91,0.00,,---,0.00,VWS V14.01,2013-02-15 07:30:00,
2013-02-15 01:35:00,34.3,31.9,30.06,WSW,248,0.0,0.0,91,0.00,,---,0.00,VWS V14.01,2013-02-15 07:35:00,
2013-02-15 01:40:00,34.1,31.7,30.06,WSW,248,0.0,0.0,91,0.00,,---,0.00,VWS V14.01,2013-02-15 07:40:00,
2013-02-15 01:45:00,34.1,31.7,30.03,WSW,248,0.0,0.0,91,0.00,,---,0.00,VWS V14.01,2013-02-15 07:45:00,
2013-02-15 01:50:00,33.9,31.3,30.03,WSW,248,0.0,0.0,90,0.00,,---,0.00,VWS V14.01,2013-02-15 07:50:00,
2013-02-15 01:55:00,33.9,31.6,30.03,WSW,248,0.0,0.0,91,0.00,,---,0.00,VWS V14.01,2013-02-15 07:55:00,
2013-02-15 02:00:00,33.7,31.4,30.06,WSW,248,0.0,0.0,91,0.00,,---,0.00,VWS V14.01,2013-02-15 08:00:00,
2013-02-15 02:05:00,33.7,31.4,30.06,WSW,248,0.0,0.0,91,0.00,,---,0.00,VWS V14.01,2013-02-15 08:05:00,
2013-02-15 02:11:00,33.7,31.4,30.06,WSW,248,0.0,0.0,91,0.00,,---,0.00,VWS V14.01,2013-02-15 08:11:00,
2013-02-15 02:16:00,33.5,31.5,30.06,WSW,248,0.0,0.0,92,0.00,,---,0.00,VWS V14.01,2013-02-15 08:16:00,
2013-02-15 02:21:00,33.5,31.5,30.06,WSW,248,0.0,0.0,92,0.00,,---,0.00,VWS V14.01,2013-02-15 08:21:00,
2013-02-15 02:26:00,33.5,31.5,30.06,WSW,248,0.0,0.0,92,0.00,,---,0.00,VWS V14.01,2013-02-15 08:26:00,
2013-02-15 02:31:00,33.4,31.0,30.06,WSW,248,0.0,0.0,91,0.00,,---,0.00,VWS V14.01,2013-02-15 08:31:00,
2013-02-15 02:36:00,33.4,31.0,30.06,SSE,158,1.6,2.0,91,0.00,,---,0.00,VWS V14.01,2013-02-15 08:36:00,
2013-02-15 02:41:00,33.2,30.8,30.06,WNW,292,0.0,0.0,91,0.00,,---,0.00,VWS V14.01,2013-02-15 08:41:00,
2013-02-15 02:46:00,33.2,30.8,30.06,WNW,292,0.0,0.0,91,0.00,,---,0.00,VWS V14.01,2013-02-15 08:46:00,
2013-02-15 02:51:00,33.2,31.1,30.06,WNW,292,0.0,0.0,92,0.00,,---,0.00,VWS V14.01,2013-02-15 08:51:00,
2013-02-15 02:56:00,33.2,31.1,30.06,WNW,292,0.0,0.0,92,0.00,,---,0.00,VWS V14.01,2013-02-15 08:56:00,
2013-02-15 03:01:00,33.0,30.9,30.06,WNW,292,0.0,0.0,92,0.00,,---,0.00,VWS V14.01,2013-02-15 09:01:00,
2013-02-15 03:06:00,33.0,30.9,30.06,WNW,292,0.0,0.0,92,0.00,,---,0.00,VWS V14.01,2013-02-15 09:06:00,
2013-02-15 03:11:00,33.0,30.9,30.06,West,270,0.0,0.0,92,0.00,,---,0.00,VWS V14.01,2013-02-15 09:11:00,
2013-02-15 03:16:00,32.8,30.8,30.06,West,270,0.0,0.0,92,0.00,,---,0.00,VWS V14.01,2013-02-15 09:16:00,
2013-02-15 03:21:00,32.8,30.8,30.06,West,270,0.0,0.0,92,0.00,,---,0.00,VWS V14.01,2013-02-15 09:21:00,
2013-02-15 03:26:00,32.6,30.6,30.06,West,270,0.0,0.0,92,0.00,,---,0.00,VWS V14.01,2013-02-15 09:26:00,
2013-02-15 03:31:00,32.6,30.6,30.06,West,270,0.0,0.0,92,0.00,,---,0.00,VWS V14.01,2013-02-15 09:31:00,
2013-02-15 03:36:00,32.6,30.6,30.06,West,270,0.0,0.0,92,0.00,,---,0.00,VWS V14.01,2013-02-15 09:36:00,
2013-02-15 03:41:00,32.5,30.4,30.06,West,270,0.0,0.0,92,0.00,,---,0.00,VWS V14.01,2013-02-15 09:41:00,
2013-02-15 03:46:00,32.5,30.4,30.06,West,270,0.0,0.0,92,0.00,,---,0.00,VWS V14.01,2013-02-15 09:46:00,
2013-02-15 03:51:00,32.3,30.2,30.06,West,270,0.0,0.0,92,0.00,,---,0.00,VWS V14.01,2013-02-15 09:51:00,
2013-02-15 03:56:00,32.1,30.0,30.06,West,270,0.0,0.0,92,0.00,,---,0.00,VWS V14.01,2013-02-15 09:56:00,
2013-02-15 04:01:00,32.1,30.0,30.06,West,270,0.0,0.0,92,0.00,,---,0.00,VWS V14.01,2013-02-15 10:01:00,
2013-02-15 04:06:00,32.1,30.0,30.06,West,270,0.0,0.0,92,0.00,,---,0.00,VWS V14.01,2013-02-15 10:06:00,
2013-02-15 04:11:00,31.9,29.9,30.06,West,270,0.0,0.0,92,0.00,,---,0.00,VWS V14.01,2013-02-15 10:11:00,
2013-02-15 04:16:00,31.9,29.9,30.06,West,270,0.0,0.0,92,0.00,,---,0.00,VWS V14.01,2013-02-15 10:16:00,
2013-02-15 04:21:00,31.9,29.9,30.06,West,270,0.0,0.0,92,0.00,,---,0.00,VWS V14.01,2013-02-15 10:21:00,
2013-02-15 04:26:00,31.9,29.9,30.06,West,270,0.0,0.0,92,0.00,,---,0.00,VWS V14.01,2013-02-15 10:26:00,
2013-02-15 04:31:00,31.9,29.9,30.06,West,270,0.0,0.0,92,0.00,,---,0.00,VWS V14.01,2013-02-15 10:31:00,
2013-02-15 04:36:00,31.9,30.1,30.06,West,270,0.0,0.0,93,0.00,,---,0.00,VWS V14.01,2013-02-15 10:36:00,
2013-02-15 04:41:00,31.7,30.0,30.06,West,270,0.0,0.0,93,0.00,,---,0.00,VWS V14.01,2013-02-15 10:41:00,
2013-02-15 04:46:00,31.7,30.0,30.06,West,270,0.0,0.0,93,0.00,,---,0.00,VWS V14.01,2013-02-15 10:46:00,
2013-02-15 04:51:00,31.7,29.7,30.06,West,270,0.0,0.0,92,0.00,,---,0.00,VWS V14.01,2013-02-15 10:51:00,
2013-02-15 04:56:00,31.7,29.7,30.06,West,270,0.0,0.0,92,0.00,,---,0.00,VWS V14.01,2013-02-15 10:56:00,
2013-02-15 05:01:00,31.7,29.7,30.06,West,270,0.0,0.0,92,0.00,,---,0.00,VWS V14.01,2013-02-15 11:01:00,
2013-02-15 05:06:00,31.7,29.7,30.06,West,270,0.0,0.0,92,0.00,,---,0.00,VWS V14.01,2013-02-15 11:06:00,
2013-02-15 05:11:00,31.7,29.7,30.06,West,270,0.0,0.0,92,0.00,,---,0.00,VWS V14.01,2013-02-15 11:11:00,
2013-02-15 05:16:00,31.7,29.7,30.06,West,270,0.0,0.0,92,0.00,,---,0.00,VWS V14.01,2013-02-15 11:16:00,
2013-02-15 05:21:00,31.6,29.8,30.06,West,270,0.0,0.0,93,0.00,,---,0.00,VWS V14.01,2013-02-15 11:21:00,
2013-02-15 05:26:00,31.6,29.8,30.06,West,270,0.0,0.0,93,0.00,,---,0.00,VWS V14.01,2013-02-15 11:26:00,
2013-02-15 05:31:00,31.6,29.8,30.06,West,270,0.0,0.0,93,0.00,,---,0.00,VWS V14.01,2013-02-15 11:31:00,
2013-02-15 05:36:00,31.6,29.8,30.06,West,270,0.0,0.0,93,0.00,,---,0.00,VWS V14.01,2013-02-15 11:36:00,
2013-02-15 05:41:00,31.6,29.8,30.06,West,270,0.0,0.0,93,0.00,,---,0.00,VWS V14.01,2013-02-15 11:41:00,
2013-02-15 05:46:00,31.6,29.8,30.06,West,270,0.0,0.0,93,0.00,,---,0.00,VWS V14.01,2013-02-15 11:46:00,
2013-02-15 05:51:00,31.6,30.0,30.06,West,270,0.0,0.0,94,0.00,,---,0.00,VWS V14.01,2013-02-15 11:51:00,
2013-02-15 05:56:00,31.6,30.0,30.06,West,270,0.0,0.0,94,0.00,,---,0.00,VWS V14.01,2013-02-15 11:56:00,
2013-02-15 06:01:00,31.6,30.0,30.09,West,270,0.0,0.0,94,0.00,,---,0.00,VWS V14.01,2013-02-15 12:01:00,
2013-02-15 06:06:00,31.6,29.8,30.09,West,270,0.0,0.0,93,0.00,,---,0.00,VWS V14.01,2013-02-15 12:06:00,
2013-02-15 06:11:00,31.6,30.0,30.09,West,270,0.0,0.0,94,0.00,,---,0.00,VWS V14.01,2013-02-15 12:11:00,
2013-02-15 06:16:00,31.6,30.0,30.09,West,270,0.0,0.0,94,0.00,,---,0.00,VWS V14.01,2013-02-15 12:16:00,
2013-02-15 06:21:00,31.6,30.0,30.09,West,270,0.0,0.0,94,0.00,,---,0.00,VWS V14.01,2013-02-15 12:21:00,
2013-02-15 06:26:00,31.6,30.0,30.09,West,270,0.0,0.0,94,0.00,,---,0.00,VWS V14.01,2013-02-15 12:26:00,
2013-02-15 06:31:00,31.6,30.0,30.09,West,270,0.0,0.0,94,0.00,,---,0.00,VWS V14.01,2013-02-15 12:31:00,
2013-02-15 06:36:00,31.6,30.0,30.09,West,270,0.0,0.0,94,0.00,,---,0.00,VWS V14.01,2013-02-15 12:36:00,
2013-02-15 06:41:00,31.6,30.0,30.09,West,270,0.0,0.0,94,0.00,,---,0.00,VWS V14.01,2013-02-15 12:41:00,
2013-02-15 06:46:00,31.6,30.0,30.09,West,270,0.0,0.0,94,0.00,,---,0.00,VWS V14.01,2013-02-15 12:46:00,
2013-02-15 06:51:00,31.7,30.2,30.09,West,270,0.0,0.0,94,0.00,,---,0.00,VWS V14.01,2013-02-15 12:51:00,
2013-02-15 06:56:00,31.7,30.2,30.09,West,270,0.0,0.0,94,0.00,,---,0.00,VWS V14.01,2013-02-15 12:56:00,
2013-02-15 07:01:00,31.7,30.2,30.09,West,270,0.0,0.0,94,0.00,,---,0.00,VWS V14.01,2013-02-15 13:01:00,
2013-02-15 07:06:00,31.7,30.2,30.09,West,270,0.0,0.0,94,0.00,,---,0.00,VWS V14.01,2013-02-15 13:06:00,
2013-02-15 07:11:00,31.9,30.4,30.09,West,270,0.0,0.0,94,0.00,,---,0.00,VWS V14.01,2013-02-15 13:11:00,
2013-02-15 07:17:00,32.1,30.6,30.09,West,270,0.0,0.0,94,0.00,,---,0.00,VWS V14.01,2013-02-15 13:17:00,
2013-02-15 07:22:00,32.3,31.0,30.09,West,270,0.0,0.0,95,0.00,,---,0.00,VWS V14.01,2013-02-15 13:22:00,
2013-02-15 07:27:00,32.6,31.4,30.09,West,270,0.0,0.0,95,0.00,,---,0.00,VWS V14.01,2013-02-15 13:27:00,
2013-02-15 07:32:00,32.8,31.5,30.09,West,270,0.0,0.0,95,0.00,,---,0.00,VWS V14.01,2013-02-15 13:32:00,
2013-02-15 07:37:00,33.2,31.9,30.09,West,270,0.0,0.0,95,0.00,,---,0.00,VWS V14.01,2013-02-15 13:37:00,
2013-02-15 07:42:00,33.2,31.9,30.09,WNW,292,0.0,0.0,95,0.00,,---,0.00,VWS V14.01,2013-02-15 13:42:00,
2013-02-15 07:47:00,33.5,32.3,30.12,WNW,292,0.0,0.0,95,0.00,,---,0.00,VWS V14.01,2013-02-15 13:47:00,
2013-02-15 07:52:00,33.9,32.9,30.12,WNW,292,0.0,0.0,96,0.00,,---,0.00,VWS V14.01,2013-02-15 13:52:00,
2013-02-15 07:57:00,34.3,33.2,30.12,WNW,292,0.0,0.0,96,0.00,,---,0.00,VWS V14.01,2013-02-15 13:57:00,
2013-02-15 08:02:00,34.6,33.6,30.12,WNW,292,0.0,0.0,96,0.00,,---,0.00,VWS V14.01,2013-02-15 14:02:00,
2013-02-15 08:07:00,35.0,34.0,30.12,SSW,202,0.0,0.0,96,0.00,,---,0.00,VWS V14.01,2013-02-15 14:07:00,
2013-02-15 08:12:00,35.7,34.9,30.12,WSW,248,0.0,0.0,97,0.00,,---,0.00,VWS V14.01,2013-02-15 14:12:00,
2013-02-15 08:17:00,36.2,35.5,30.12,WSW,248,0.0,0.0,97,0.00,,---,0.00,VWS V14.01,2013-02-15 14:17:00,
2013-02-15 08:22:00,36.8,36.0,30.12,WSW,248,0.0,0.0,97,0.00,,---,0.00,VWS V14.01,2013-02-15 14:22:00,
2013-02-15 08:27:00,37.5,37.0,30.12,NNW,338,2.5,2.5,98,0.00,,---,0.00,VWS V14.01,2013-02-15 14:27:00,
2013-02-15 08:32:00,38.2,37.7,30.12,NNW,338,0.0,0.0,98,0.00,,---,0.00,VWS V14.01,2013-02-15 14:32:00,
2013-02-15 08:37:00,38.9,38.4,30.12,SSE,158,0.0,2.0,98,0.00,,---,0.00,VWS V14.01,2013-02-15 14:37:00,
2013-02-15 08:42:00,39.8,39.3,30.12,SSW,202,0.0,3.1,98,0.00,,---,0.00,VWS V14.01,2013-02-15 14:42:00,
2013-02-15 08:47:00,40.9,40.4,30.12,SSW,202,0.0,0.0,98,0.00,,---,0.00,VWS V14.01,2013-02-15 14:47:00,
2013-02-15 08:52:00,41.6,41.1,30.12,SSW,202,0.0,0.0,98,0.00,,---,0.00,VWS V14.01,2013-02-15 14:52:00,
2013-02-15 08:57:00,42.7,42.2,30.12,NW,315,0.0,0.0,98,0.00,,---,0.00,VWS V14.01,2013-02-15 14:57:00,
2013-02-15 09:02:00,43.8,43.3,30.12,NNW,338,0.0,0.0,98,0.00,,---,0.00,VWS V14.01,2013-02-15 15:02:00,
2013-02-15 09:07:00,44.9,44.3,30.12,SSE,158,0.0,0.0,98,0.00,,---,0.00,VWS V14.01,2013-02-15 15:07:00,
2013-02-15 09:12:00,46.3,45.8,30.12,NW,315,0.0,2.0,98,0.00,,---,0.00,VWS V14.01,2013-02-15 15:12:00,
2013-02-15 09:17:00,48.1,47.6,30.12,SSW,202,0.9,2.0,98,0.00,,---,0.00,VWS V14.01,2013-02-15 15:17:00,
2013-02-15 09:22:00,49.9,48.3,30.12,NE,45,0.0,0.0,94,0.00,,---,0.00,VWS V14.01,2013-02-15 15:22:00,
2013-02-15 09:27:00,49.9,48.3,30.12,NW,315,2.5,2.5,94,0.00,,---,0.00,VWS V14.01,2013-02-15 15:27:00,
2013-02-15 09:32:00,52.6,42.0,30.12,NNE,22,0.9,1.6,67,0.00,,---,0.00,VWS V14.01,2013-02-15 15:32:00,
2013-02-15 09:37:00,52.6,42.0,30.12,WSW,248,0.9,0.9,67,0.00,,---,0.00,VWS V14.01,2013-02-15 15:37:00,
2013-02-15 09:42:00,52.6,42.0,30.12,North,0,1.3,1.6,67,0.00,,---,0.00,VWS V14.01,2013-02-15 15:42:00,
2013-02-15 09:47:00,52.6,42.0,30.12,NW,315,2.2,2.7,67,0.00,,---,0.00,VWS V14.01,2013-02-15 15:47:00,
2013-02-15 09:52:00,52.6,42.0,30.12,WNW,292,1.1,2.2,67,0.00,,---,0.00,VWS V14.01,2013-02-15 15:52:00,
2013-02-15 09:57:00,57.3,41.8,30.12,WNW,292,1.1,1.6,56,0.00,,---,0.00,VWS V14.01,2013-02-15 15:57:00,
2013-02-15 10:02:00,57.7,39.7,30.12,NE,45,1.6,3.4,51,0.00,,---,0.00,VWS V14.01,2013-02-15 16:02:00,
2013-02-15 10:07:00,58.4,40.3,30.12,NNW,338,3.4,3.4,51,0.00,,---,0.00,VWS V14.01,2013-02-15 16:07:00,
2013-02-15 10:12:00,58.6,40.0,30.12,NNW,338,7.6,7.6,50,0.00,,---,0.00,VWS V14.01,2013-02-15 16:12:00,
2013-02-15 10:17:00,59.1,40.0,30.12,North,0,2.9,2.9,49,0.00,,---,0.00,VWS V14.01,2013-02-15 16:17:00,
2013-02-15 10:22:00,59.1,39.5,30.12,NNW,338,5.4,5.4,48,0.00,,---,0.00,VWS V14.01,2013-02-15 16:22:00,
2013-02-15 10:27:00,60.0,40.3,30.12,WNW,292,1.3,2.9,48,0.00,,---,0.00,VWS V14.01,2013-02-15 16:27:00,
2013-02-15 10:32:00,60.4,41.7,30.12,North,0,1.1,1.3,50,0.00,,---,0.00,VWS V14.01,2013-02-15 16:32:00,
2013-02-15 10:37:00,60.7,40.9,30.12,North,0,2.9,3.8,48,0.00,,---,0.00,VWS V14.01,2013-02-15 16:37:00,
2013-02-15 10:42:00,60.4,40.1,30.12,North,0,3.1,3.8,47,0.00,,---,0.00,VWS V14.01,2013-02-15 16:42:00,
2013-02-15 10:47:00,60.2,39.3,30.12,SSE,158,1.1,1.1,46,0.00,,---,0.00,VWS V14.01,2013-02-15 16:47:00,
2013-02-15 10:52:00,60.7,39.3,30.12,WNW,292,2.7,3.6,45,0.00,,---,0.00,VWS V14.01,2013-02-15 16:52:00,
2013-02-15 10:57:00,60.9,39.4,30.12,WSW,248,2.5,2.5,45,0.00,,---,0.00,VWS V14.01,2013-02-15 16:57:00,
2013-02-15 11:02:00,61.8,39.7,30.12,NE,45,2.0,2.9,44,0.00,,---,0.00,VWS V14.01,2013-02-15 17:02:00,
2013-02-15 11:07:00,62.7,40.5,30.12,SSW,202,2.5,3.4,44,0.00,,---,0.00,VWS V14.01,2013-02-15 17:07:00,
2013-02-15 11:12:00,62.9,40.7,30.12,WNW,292,0.0,1.1,44,0.00,,---,0.00,VWS V14.01,2013-02-15 17:12:00,
2013-02-15 11:17:00,62.9,40.7,30.12,NNE,22,4.0,4.9,44,0.00,,---,0.00,VWS V14.01,2013-02-15 17:17:00,
2013-02-15 11:22:00,62.7,39.3,30.12,NNE,22,3.6,3.6,42,0.00,,---,0.00,VWS V14.01,2013-02-15 17:22:00,
2013-02-15 11:27:00,63.1,39.6,30.12,NNW,338,4.9,4.9,42,0.00,,---,0.00,VWS V14.01,2013-02-15 17:27:00,
2013-02-15 11:32:00,62.7,39.3,30.12,NE,45,2.7,4.0,42,0.00,,---,0.00,VWS V14.01,2013-02-15 17:32:00,
2013-02-15 11:38:00,64.0,39.8,30.12,NW,315,4.0,4.7,41,0.00,,---,0.00,VWS V14.01,2013-02-15 17:38:00,
2013-02-15 11:43:00,64.0,38.5,30.12,North,0,6.3,6.3,39,0.00,,---,0.00,VWS V14.01,2013-02-15 17:43:00,
2013-02-15 11:48:00,63.8,38.4,30.12,NW,315,2.5,4.0,39,0.00,,---,0.00,VWS V14.01,2013-02-15 17:48:00,
2013-02-15 11:53:00,64.0,39.2,30.12,NNE,22,5.8,6.0,40,0.00,,---,0.00,VWS V14.01,2013-02-15 17:53:00,
2013-02-15 11:58:00,63.6,37.5,30.12,NNW,338,4.9,4.9,38,0.00,,---,0.00,VWS V14.01,2013-02-15 17:58:00,
2013-02-15 12:03:00,62.9,36.9,30.12,NNW,338,5.8,5.8,38,0.00,,---,0.00,VWS V14.01,2013-02-15 18:03:00,
2013-02-15 12:08:00,63.1,38.4,30.12,North,0,2.2,2.5,40,0.00,,---,0.00,VWS V14.01,2013-02-15 18:08:00,
2013-02-15 12:13:00,64.1,38.7,30.09,WNW,292,3.4,3.4,39,0.00,,---,0.00,VWS V14.01,2013-02-15 18:13:00,
2013-02-15 12:18:00,63.6,38.2,30.09,North,0,2.7,5.6,39,0.00,,---,0.00,VWS V14.01,2013-02-15 18:18:00,
2013-02-15 12:23:00,62.9,37.6,30.09,NE,45,3.1,5.4,39,0.00,,---,0.00,VWS V14.01,2013-02-15 18:23:00,
2013-02-15 12:28:00,63.4,38.7,30.09,NNE,22,2.9,2.9,40,0.00,,---,0.00,VWS V14.01,2013-02-15 18:28:00,
2013-02-15 12:33:00,63.8,39.0,30.09,NNW,338,2.5,4.0,40,0.00,,---,0.00,VWS V14.01,2013-02-15 18:33:00,
2013-02-15 12:38:00,63.6,38.9,30.09,NNE,22,2.9,4.3,40,0.00,,---,0.00,VWS V14.01,2013-02-15 18:38:00,
2013-02-15 12:43:00,63.6,38.2,30.09,NW,315,4.3,4.3,39,0.00,,---,0.00,VWS V14.01,2013-02-15 18:43:00,
2013-02-15 12:48:00,64.1,39.3,30.09,NNE,22,2.9,5.4,40,0.00,,---,0.00,VWS V14.01,2013-02-15 18:48:00,
2013-02-15 12:53:00,64.1,38.7,30.09,WSW,248,0.9,4.3,39,0.00,,---,0.00,VWS V14.01,2013-02-15 18:53:00,
2013-02-15 12:58:00,64.5,39.0,30.09,West,270,5.4,5.4,39,0.00,,---,0.00,VWS V14.01,2013-02-15 18:58:00,
2013-02-15 13:03:00,64.9,38.0,30.09,NNW,338,3.6,3.6,37,0.00,,---,0.00,VWS V14.01,2013-02-15 19:03:00,
2013-02-15 13:08:00,66.5,40.8,30.09,North,0,2.9,3.6,39,0.00,,---,0.00,VWS V14.01,2013-02-15 19:08:00,
2013-02-15 13:13:00,65.9,38.2,30.09,NNW,338,3.8,5.4,36,0.00,,---,0.00,VWS V14.01,2013-02-15 19:13:00,
2013-02-15 13:18:00,65.8,38.1,30.09,NW,315,2.9,3.8,36,0.00,,---,0.00,VWS V14.01,2013-02-15 19:18:00,
2013-02-15 13:23:00,65.0,37.5,30.09,North,0,2.7,6.5,36,0.00,,---,0.00,VWS V14.01,2013-02-15 19:23:00,
2013-02-15 13:28:00,64.9,36.6,30.06,NNW,338,4.7,6.9,35,0.00,,---,0.00,VWS V14.01,2013-02-15 19:28:00,
2013-02-15 13:33:00,64.5,36.3,30.06,NNW,338,5.6,5.6,35,0.00,,---,0.00,VWS V14.01,2013-02-15 19:33:00,
2013-02-15 13:38:00,64.9,37.3,30.06,NNW,338,6.7,7.6,36,0.00,,---,0.00,VWS V14.01,2013-02-15 19:38:00,
2013-02-15 13:43:00,65.4,37.1,30.06,NNE,22,2.9,2.9,35,0.00,,---,0.00,VWS V14.01,2013-02-15 19:43:00,
2013-02-15 13:48:00,65.2,37.6,30.06,North,0,3.6,3.6,36,0.00,,---,0.00,VWS V14.01,2013-02-15 19:48:00,
2013-02-15 13:53:00,66.1,38.4,30.06,NW,315,3.6,3.6,36,0.00,,---,0.00,VWS V14.01,2013-02-15 19:53:00,
2013-02-15 13:58:00,64.3,36.1,30.09,NNW,338,4.3,5.4,35,0.00,,---,0.00,VWS V14.01,2013-02-15 19:58:00,
2013-02-15 14:03:00,64.5,36.3,30.09,North,0,4.5,8.1,35,0.00,,---,0.00,VWS V14.01,2013-02-15 20:03:00,
2013-02-15 14:08:00,64.7,36.4,30.09,NW,315,5.8,5.8,35,0.00,,---,0.00,VWS V14.01,2013-02-15 20:08:00,
2013-02-15 14:13:00,64.5,36.3,30.06,NE,45,3.4,5.4,35,0.00,,---,0.00,VWS V14.01,2013-02-15 20:13:00,
2013-02-15 14:18:00,64.5,36.3,30.06,NW,315,0.0,0.0,35,0.00,,---,0.00,VWS V14.01,2013-02-15 20:18:00,
2013-02-15 14:23:00,64.7,36.4,30.06,WNW,292,3.4,3.4,35,0.00,,---,0.00,VWS V14.01,2013-02-15 20:23:00,
2013-02-15 14:28:00,64.0,35.8,30.06,NW,315,3.6,5.8,35,0.00,,---,0.00,VWS V14.01,2013-02-15 20:28:00,
2013-02-15 14:33:00,63.1,35.0,30.06,NW,315,5.6,5.6,35,0.00,,---,0.00,VWS V14.01,2013-02-15 20:33:00,
2013-02-15 14:38:00,63.4,35.3,30.06,SE,135,1.3,1.3,35,0.00,,---,0.00,VWS V14.01,2013-02-15 20:38:00,
2013-02-15 14:43:00,63.4,35.3,30.06,WSW,248,6.0,6.5,35,0.00,,---,0.00,VWS V14.01,2013-02-15 20:43:00,
2013-02-15 14:48:00,63.8,35.6,30.06,North,0,2.5,2.7,35,0.00,,---,0.00,VWS V14.01,2013-02-15 20:48:00,
2013-02-15 14:53:00,64.1,36.0,30.06,NNE,22,3.1,3.1,35,0.00,,---,0.00,VWS V14.01,2013-02-15 20:53:00,
2013-02-15 14:58:00,64.0,35.8,30.06,NNW,338,2.5,2.5,35,0.00,,---,0.00,VWS V14.01,2013-02-15 20:58:00,
2013-02-15 15:03:00,64.3,36.1,30.06,NNE,22,1.6,2.2,35,0.00,,---,0.00,VWS V14.01,2013-02-15 21:03:00,
2013-02-15 15:08:00,64.1,36.0,30.06,NE,45,3.8,6.3,35,0.00,,---,0.00,VWS V14.01,2013-02-15 21:08:00,
2013-02-15 15:13:00,64.0,35.1,30.06,ENE,68,4.0,4.0,34,0.00,,---,0.00,VWS V14.01,2013-02-15 21:13:00,
2013-02-15 15:18:00,64.5,36.3,30.06,West,270,2.7,3.6,35,0.00,,---,0.00,VWS V14.01,2013-02-15 21:18:00,
2013-02-15 15:23:00,64.1,36.0,30.06,NW,315,6.5,6.5,35,0.00,,---,0.00,VWS V14.01,2013-02-15 21:23:00,
2013-02-15 15:28:00,64.0,35.1,30.06,NNW,338,8.5,8.5,34,0.00,,---,0.00,VWS V14.01,2013-02-15 21:28:00,
2013-02-15 15:33:00,63.4,35.3,30.06,NNW,338,1.3,2.5,35,0.00,,---,0.00,VWS V14.01,2013-02-15 21:33:00,
2013-02-15 15:38:00,63.2,35.2,30.06,NNW,338,3.1,3.1,35,0.00,,---,0.00,VWS V14.01,2013-02-15 21:38:00,
2013-02-15 15:43:00,63.4,35.3,30.06,NNW,338,2.5,3.1,35,0.00,,---,0.00,VWS V14.01,2013-02-15 21:43:00,
2013-02-15 15:48:00,63.1,35.0,30.06,North,0,2.5,2.7,35,0.00,,---,0.00,VWS V14.01,2013-02-15 21:48:00,
2013-02-15 15:53:00,63.6,35.5,30.06,North,0,3.8,3.8,35,0.00,,---,0.00,VWS V14.01,2013-02-15 21:53:00,
2013-02-15 15:58:00,63.2,35.2,30.06,NW,315,0.9,2.9,35,0.00,,---,0.00,VWS V14.01,2013-02-15 21:58:00,
2013-02-15 16:03:00,63.1,35.0,30.06,North,0,3.1,3.1,35,0.00,,---,0.00,VWS V14.01,2013-02-15 22:03:00,
2013-02-15 16:09:00,62.3,34.4,30.06,NNE,22,3.8,4.3,35,0.00,,---,0.00,VWS V14.01,2013-02-15 22:09:00,
2013-02-15 16:13:00,62.3,34.4,30.06,NNW,338,3.8,5.4,35,0.00,,---,0.00,VWS V14.01,2013-02-15 22:13:00,
2013-02-15 16:18:00,62.2,34.2,30.06,NNW,338,3.8,3.8,35,0.00,,---,0.00,VWS V14.01,2013-02-15 22:18:00,
2013-02-15 16:24:00,61.3,34.1,30.06,NNW,338,2.9,3.8,36,0.00,,---,0.00,VWS V14.01,2013-02-15 22:24:00,
2013-02-15 16:28:00,60.5,33.5,30.06,NNE,22,5.6,5.6,36,0.00,,---,0.00,VWS V14.01,2013-02-15 22:28:00,
2013-02-15 16:34:00,59.8,33.5,30.06,North,0,3.1,3.6,37,0.00,,---,0.00,VWS V14.01,2013-02-15 22:34:00,
2013-02-15 16:39:00,59.3,33.7,30.06,NNE,22,4.3,4.7,38,0.00,,---,0.00,VWS V14.01,2013-02-15 22:39:00,
2013-02-15 16:44:00,58.6,33.7,30.06,NNE,22,3.6,4.3,39,0.00,,---,0.00,VWS V14.01,2013-02-15 22:44:00,
2013-02-15 16:49:00,58.2,34.6,30.06,North,0,3.6,6.0,41,0.00,,---,0.00,VWS V14.01,2013-02-15 22:49:00,
2013-02-15 16:54:00,57.5,35.8,30.06,NE,45,5.4,7.6,44,0.00,,---,0.00,VWS V14.01,2013-02-15 22:54:00,
2013-02-15 16:59:00,56.9,35.8,30.06,NNE,22,3.8,7.6,45,0.00,,---,0.00,VWS V14.01,2013-02-15 22:59:00,
2013-02-15 17:04:00,56.4,35.9,30.06,NNW,338,5.4,5.4,46,0.00,,---,0.00,VWS V14.01,2013-02-15 23:04:00,
2013-02-15 17:09:00,55.9,36.0,30.06,North,0,3.6,3.6,47,0.00,,---,0.00,VWS V14.01,2013-02-15 23:09:00,
2013-02-15 17:14:00,55.5,36.2,30.06,NNE,22,3.6,4.0,48,0.00,,---,0.00,VWS V14.01,2013-02-15 23:14:00,
2013-02-15 17:19:00,55.3,36.5,30.06,NNW,338,3.4,3.4,49,0.00,,---,0.00,VWS V14.01,2013-02-15 23:19:00,
2013-02-15 17:24:00,55.0,36.7,30.06,ENE,68,4.0,4.0,50,0.00,,---,0.00,VWS V14.01,2013-02-15 23:24:00,
2013-02-15 17:29:00,54.6,36.3,30.06,North,0,2.5,2.5,50,0.00,,---,0.00,VWS V14.01,2013-02-15 23:29:00,
2013-02-15 17:34:00,54.4,36.7,30.06,North,0,2.9,3.8,51,0.00,,---,0.00,VWS V14.01,2013-02-15 23:34:00,
2013-02-15 17:39:00,54.2,37.0,30.06,NNW,338,2.5,3.6,52,0.00,,---,0.00,VWS V14.01,2013-02-15 23:39:00,
2013-02-15 17:44:00,54.1,37.3,30.06,NNW,338,2.5,3.4,53,0.00,,---,0.00,VWS V14.01,2013-02-15 23:44:00,
2013-02-15 17:49:00,53.9,37.2,30.06,North,0,1.6,2.7,53,0.00,,---,0.00,VWS V14.01,2013-02-15 23:49:00,
2013-02-15 17:54:00,53.5,36.8,30.06,NNW,338,2.5,2.5,53,0.00,,---,0.00,VWS V14.01,2013-02-15 23:54:00,
2013-02-15 17:59:00,53.2,36.5,30.06,NNW,338,1.6,1.6,53,0.00,,---,0.00,VWS V14.01,2013-02-15 23:59:00,
2013-02-15 18:04:00,52.8,36.2,30.06,NNW,338,0.0,0.0,53,0.00,,---,0.00,VWS V14.01,2013-02-16 00:04:00,
2013-02-15 18:09:00,52.4,36.3,30.06,NNW,338,2.0,2.0,54,0.00,,---,0.00,VWS V14.01,2013-02-16 00:09:00,
2013-02-15 18:14:00,52.1,36.4,30.06,NW,315,2.2,2.2,55,0.00,,---,0.00,VWS V14.01,2013-02-16 00:14:00,
2013-02-15 18:19:00,51.7,37.0,30.06,WNW,292,0.0,2.2,57,0.00,,---,0.00,VWS V14.01,2013-02-16 00:19:00,
2013-02-15 18:24:00,51.5,37.3,30.06,NNE,22,4.0,4.0,58,0.00,,---,0.00,VWS V14.01,2013-02-16 00:24:00,
2013-02-15 18:29:00,51.7,37.4,30.09,NW,315,6.0,6.0,58,0.00,,---,0.00,VWS V14.01,2013-02-16 00:29:00,
2013-02-15 18:34:00,51.7,37.0,30.09,North,0,2.5,2.9,57,0.00,,---,0.00,VWS V14.01,2013-02-16 00:34:00,
2013-02-15 18:39:00,51.7,36.5,30.09,WNW,292,1.1,2.5,56,0.00,,---,0.00,VWS V14.01,2013-02-16 00:39:00,
2013-02-15 18:44:00,51.5,36.4,30.09,NNE,22,2.2,2.9,56,0.00,,---,0.00,VWS V14.01,2013-02-16 00:44:00,
2013-02-15 18:49:00,51.4,36.2,30.09,WNW,292,5.8,6.7,56,0.00,,---,0.00,VWS V14.01,2013-02-16 00:49:00,
2013-02-15 18:54:00,51.2,36.0,30.09,NNW,338,2.2,3.8,56,0.00,,---,0.00,VWS V14.01,2013-02-16 00:54:00,
2013-02-15 18:59:00,51.0,35.9,30.09,NNW,338,2.5,2.5,56,0.00,,---,0.00,VWS V14.01,2013-02-16 00:59:00,
2013-02-15 19:04:00,50.6,35.5,30.09,NNW,338,1.3,3.6,56,0.00,,---,0.00,VWS V14.01,2013-02-16 01:04:00,
2013-02-15 19:09:00,50.6,35.5,30.09,NNW,338,2.0,2.7,56,0.00,,---,0.00,VWS V14.01,2013-02-16 01:09:00,
2013-02-15 19:14:00,50.3,35.6,30.09,NNW,338,2.9,2.9,57,0.00,,---,0.00,VWS V14.01,2013-02-16 01:14:00,
2013-02-15 19:19:00,50.1,35.5,30.09,NW,315,1.6,1.6,57,0.00,,---,0.00,VWS V14.01,2013-02-16 01:19:00,
2013-02-15 19:24:00,49.7,35.6,30.09,NNW,338,2.7,2.7,58,0.00,,---,0.00,VWS V14.01,2013-02-16 01:24:00,
2013-02-15 19:29:00,49.6,35.4,30.09,NNW,338,0.0,0.0,58,0.00,,---,0.00,VWS V14.01,2013-02-16 01:29:00,
2013-02-15 19:34:00,49.6,35.4,30.09,North,0,2.7,2.7,58,0.00,,---,0.00,VWS V14.01,2013-02-16 01:34:00,
2013-02-15 19:39:00,49.4,35.2,30.09,NNW,338,2.0,2.0,58,0.00,,---,0.00,VWS V14.01,2013-02-16 01:39:00,
2013-02-15 19:44:00,49.0,35.3,30.09,NNW,338,2.0,2.5,59,0.00,,---,0.00,VWS V14.01,2013-02-16 01:44:00,
2013-02-15 19:49:00,49.0,34.9,30.09,NW,315,2.7,2.7,58,0.00,,---,0.00,VWS V14.01,2013-02-16 01:49:00,
2013-02-15 19:54:00,48.8,34.7,30.09,NW,315,1.6,2.0,58,0.00,,---,0.00,VWS V14.01,2013-02-16 01:54:00,
2013-02-15 19:59:00,48.5,34.8,30.09,NNW,338,2.0,2.0,59,0.00,,---,0.00,VWS V14.01,2013-02-16 01:59:00,
2013-02-15 20:04:00,48.3,35.1,30.09,NW,315,1.1,1.3,60,0.00,,---,0.00,VWS V14.01,2013-02-16 02:04:00,
2013-02-15 20:09:00,47.9,34.7,30.09,NW,315,0.0,0.0,60,0.00,,---,0.00,VWS V14.01,2013-02-16 02:09:00,
2013-02-15 20:15:00,47.8,34.6,30.12,WNW,292,0.9,1.6,60,0.00,,---,0.00,VWS V14.01,2013-02-16 02:15:00,
2013-02-15 20:20:00,47.4,34.6,30.12,NW,315,1.3,1.6,61,0.00,,---,0.00,VWS V14.01,2013-02-16 02:20:00,
2013-02-15 20:25:00,46.9,34.9,30.12,WNW,292,0.0,0.0,63,0.00,,---,0.00,VWS V14.01,2013-02-16 02:25:00,
2013-02-15 20:30:00,46.5,34.6,30.12,WNW,292,0.0,0.0,63,0.00,,---,0.00,VWS V14.01,2013-02-16 02:30:00,
2013-02-15 20:35:00,46.3,34.8,30.12,WNW,292,0.0,0.0,64,0.00,,---,0.00,VWS V14.01,2013-02-16 02:35:00,
2013-02-15 20:40:00,45.8,34.3,30.12,WNW,292,0.0,0.0,64,0.00,,---,0.00,VWS V14.01,2013-02-16 02:40:00,
2013-02-15 20:45:00,45.4,34.4,30.12,WNW,292,0.0,0.0,65,0.00,,---,0.00,VWS V14.01,2013-02-16 02:45:00,
2013-02-15 20:50:00,45.1,34.4,30.12,WNW,292,0.0,0.0,66,0.00,,---,0.00,VWS V14.01,2013-02-16 02:50:00,
2013-02-15 20:55:00,44.9,34.6,30.12,WNW,292,0.0,0.0,67,0.00,,---,0.00,VWS V14.01,2013-02-16 02:55:00,
2013-02-15 21:00:00,44.7,34.4,30.12,WNW,292,0.0,0.0,67,0.00,,---,0.00,VWS V14.01,2013-02-16 03:00:00,
2013-02-15 21:05:00,44.3,34.5,30.12,WNW,292,0.0,0.0,68,0.00,,---,0.00,VWS V14.01,2013-02-16 03:05:00,
2013-02-15 21:10:00,44.2,34.7,30.12,WNW,292,0.0,0.0,69,0.00,,---,0.00,VWS V14.01,2013-02-16 03:10:00,
2013-02-15 21:15:00,44.0,34.5,30.12,WNW,292,0.0,0.0,69,0.00,,---,0.00,VWS V14.01,2013-02-16 03:15:00,
2013-02-15 21:20:00,43.8,34.7,30.12,NW,315,0.0,0.0,70,0.00,,---,0.00,VWS V14.01,2013-02-16 03:20:00,
2013-02-15 21:25:00,43.6,34.8,30.12,NW,315,0.0,0.0,71,0.00,,---,0.00,VWS V14.01,2013-02-16 03:25:00,
2013-02-15 21:30:00,43.4,34.7,30.12,NW,315,0.0,0.0,71,0.00,,---,0.00,VWS V14.01,2013-02-16 03:30:00,
2013-02-15 21:35:00,43.4,35.0,30.12,NNW,338,0.0,0.0,72,0.00,,---,0.00,VWS V14.01,2013-02-16 03:35:00,
2013-02-15 21:40:00,43.4,35.0,30.12,NNW,338,0.0,0.0,72,0.00,,---,0.00,VWS V14.01,2013-02-16 03:40:00,
2013-02-15 21:45:00,43.3,35.2,30.12,NNW,338,0.0,0.0,73,0.00,,---,0.00,VWS V14.01,2013-02-16 03:45:00,
2013-02-15 21:50:00,43.1,35.0,30.12,NNW,338,0.0,0.0,73,0.00,,---,0.00,VWS V14.01,2013-02-16 03:50:00,
2013-02-15 21:55:00,43.1,35.0,30.12,NNW,338,0.0,0.0,73,0.00,,---,0.00,VWS V14.01,2013-02-16 03:55:00,
2013-02-15 22:00:00,43.1,35.0,30.12,NNW,338,0.0,0.0,73,0.00,,---,0.00,VWS V14.01,2013-02-16 04:00:00,
2013-02-15 22:05:00,43.1,35.0,30.12,NNW,338,0.0,0.0,73,0.00,,---,0.00,VWS V14.01,2013-02-16 04:05:00,
2013-02-15 22:10:00,43.1,35.4,30.12,NNW,338,0.0,0.0,74,0.00,,---,0.00,VWS V14.01,2013-02-16 04:10:00,
2013-02-15 22:15:00,43.3,35.5,30.12,NW,315,0.0,0.0,74,0.00,,---,0.00,VWS V14.01,2013-02-16 04:15:00,
2013-02-15 22:20:00,43.4,36.1,30.12,NW,315,0.0,0.0,75,0.00,,---,0.00,VWS V14.01,2013-02-16 04:20:00,
2013-02-15 22:25:00,43.8,36.1,30.12,WNW,292,3.1,3.1,74,0.00,,---,0.00,VWS V14.01,2013-02-16 04:25:00,
2013-02-15 22:30:00,44.2,36.4,30.12,NW,315,0.0,1.3,74,0.00,,---,0.00,VWS V14.01,2013-02-16 04:30:00,
2013-02-15 22:35:00,44.5,36.4,30.12,NNW,338,0.0,0.0,73,0.00,,---,0.00,VWS V14.01,2013-02-16 04:35:00,
2013-02-15 22:40:00,44.7,36.9,30.12,NW,315,0.0,0.0,74,0.00,,---,0.00,VWS V14.01,2013-02-16 04:40:00,
2013-02-15 22:45:00,44.7,36.9,30.12,NW,315,0.0,0.0,74,0.00,,---,0.00,VWS V14.01,2013-02-16 04:45:00,
2013-02-15 22:50:00,44.9,37.1,30.12,NNW,338,0.0,0.0,74,0.00,,---,0.00,VWS V14.01,2013-02-16 04:50:00,
2013-02-15 22:55:00,45.1,36.9,30.12,NNW,338,0.0,0.0,73,0.00,,---,0.00,VWS V14.01,2013-02-16 04:55:00,
2013-02-15 23:00:00,45.2,37.1,30.12,WNW,292,0.0,0.0,73,0.00,,---,0.00,VWS V14.01,2013-02-16 05:00:00,
2013-02-15 23:05:00,45.4,37.3,30.12,NW,315,0.0,0.0,73,0.00,,---,0.00,VWS V14.01,2013-02-16 05:05:00,
2013-02-15 23:10:00,45.4,37.6,30.12,NW,315,0.0,0.0,74,0.00,,---,0.00,VWS V14.01,2013-02-16 05:10:00,
2013-02-15 23:15:00,45.4,37.6,30.12,NW,315,0.0,0.0,74,0.00,,---,0.00,VWS V14.01,2013-02-16 05:15:00,
2013-02-15 23:20:00,45.4,37.3,30.12,NW,315,0.0,0.0,73,0.00,,---,0.00,VWS V14.01,2013-02-16 05:20:00,
2013-02-15 23:23:00,45.6,36.8,30.12,NNW,338,1.3,1.3,71,0.00,,---,0.00,VWS V14.01,2013-02-16 05:23:00,
2013-02-15 23:28:00,45.8,36.6,30.09,NNW,338,1.3,1.3,70,0.00,,---,0.00,VWS V14.01,2013-02-16 05:28:00,
2013-02-15 23:33:00,46.1,34.7,30.09,NNW,338,1.6,1.6,64,0.00,,---,0.00,VWS V14.01,2013-02-16 05:33:00,
2013-02-15 23:38:00,46.1,34.7,30.09,North,0,2.7,2.7,64,0.00,,---,0.00,VWS V14.01,2013-02-16 05:38:00,
2013-02-15 23:43:00,46.1,32.2,30.09,NW,315,2.9,3.4,58,0.00,,---,0.00,VWS V14.01,2013-02-16 05:43:00,
2013-02-15 23:48:00,46.1,32.2,30.09,NNW,338,2.5,2.5,58,0.00,,---,0.00,VWS V14.01,2013-02-16 05:48:00,
2013-02-15 23:53:00,46.1,32.6,30.09,NNW,338,2.5,2.5,59,0.00,,---,0.00,VWS V14.01,2013-02-16 05:53:00,
2013-02-15 23:58:00,46.1,31.3,30.12,North,0,4.0,4.0,56,0.00,,---,0.00,VWS V14.01,2013-02-16 05:58:00,